createdAt,value
2022-10-29T00:01:26.272Z,17.11
2022-10-29T00:03:54.094Z,17.12
2022-10-29T00:06:21.764Z,17.14
2022-10-29T00:08:50.862Z,17.14
2022-10-29T00:11:21.039Z,17.13
2022-10-29T00:13:50.109Z,17.13
2022-10-29T00:16:19.745Z,17.13
2022-10-29T00:18:47.730Z,17.10
2022-10-29T00:21:17.053Z,17.11
2022-10-29T00:23:44.837Z,17.12
2022-10-29T00:26:14.810Z,17.10
2022-10-29T00:28:43.075Z,17.12
2022-10-29T00:31:13.176Z,17.11
2022-10-29T00:33:41.191Z,17.11
2022-10-29T00:36:14.432Z,17.03
2022-10-29T00:38:42.289Z,17.09
2022-10-29T00:41:12.823Z,17.08
2022-10-29T00:43:45.135Z,17.02
2022-10-29T00:46:15.066Z,17.02
2022-10-29T00:48:46.731Z,17.02
2022-10-29T00:51:16.410Z,17.01
2022-10-29T00:53:47.804Z,17.00
2022-10-29T00:56:16.382Z,16.98
2022-10-29T00:58:46.398Z,16.99
2022-10-29T01:01:15.119Z,16.97
2022-10-29T01:03:44.354Z,16.94
2022-10-29T01:06:12.127Z,16.93
2022-10-29T01:08:39.883Z,16.87
2022-10-29T01:11:15.617Z,16.85
2022-10-29T01:14:01.367Z,16.74
2022-10-29T01:16:40.188Z,16.78
2022-10-29T01:19:15.484Z,16.66
2022-10-29T01:21:46.276Z,16.77
2022-10-29T01:25:03.829Z,16.71
2022-10-29T01:27:56.647Z,16.68
2022-10-29T01:30:40.777Z,16.67
2022-10-29T01:33:17.150Z,16.60
2022-10-29T01:35:51.654Z,16.62
2022-10-29T01:38:26.374Z,16.63
2022-10-29T01:41:02.102Z,16.63
2022-10-29T01:43:35.916Z,16.64
2022-10-29T01:46:09.860Z,16.65
2022-10-29T01:48:43.565Z,16.68
2022-10-29T01:51:19.215Z,16.68
2022-10-29T01:53:47.445Z,16.69
2022-10-29T01:56:15.234Z,16.64
2022-10-29T01:58:48.319Z,16.68
2022-10-29T02:01:31.408Z,16.66
2022-10-29T02:04:13.876Z,16.64
2022-10-29T02:06:49.897Z,16.64
2022-10-29T02:09:28.122Z,16.65
2022-10-29T02:12:03.208Z,16.65
2022-10-29T02:14:34.959Z,16.65
2022-10-29T02:17:03.966Z,16.61
2022-10-29T02:19:34.915Z,16.63
2022-10-29T02:22:02.728Z,16.63
2022-10-29T02:24:30.507Z,16.61
2022-10-29T02:26:58.258Z,16.63
2022-10-29T02:29:26.014Z,16.64
2022-10-29T02:31:53.677Z,16.64
2022-10-29T02:34:21.364Z,16.62
2022-10-29T02:36:50.428Z,16.59
2022-10-29T02:39:18.539Z,16.60
2022-10-29T02:41:46.308Z,16.60
2022-10-29T02:44:13.978Z,16.60
2022-10-29T02:46:41.960Z,16.58
2022-10-29T02:49:09.684Z,16.56
2022-10-29T02:51:37.801Z,16.56
2022-10-29T02:54:07.063Z,16.52
2022-10-29T02:56:34.766Z,16.46
2022-10-29T02:59:04.285Z,16.46
2022-10-29T03:01:34.434Z,16.45
2022-10-29T03:04:02.200Z,16.42
2022-10-29T03:06:29.890Z,16.38
2022-10-29T03:08:57.638Z,16.33
2022-10-29T03:11:26.671Z,16.33
2022-10-29T03:13:54.381Z,16.32
2022-10-29T03:16:22.045Z,16.28
2022-10-29T03:18:49.814Z,16.28
2022-10-29T03:21:17.538Z,16.25
2022-10-29T03:23:45.257Z,16.23
2022-10-29T03:26:12.943Z,16.21
2022-10-29T03:28:42.041Z,16.19
2022-10-29T03:31:09.882Z,16.18
2022-10-29T03:33:37.643Z,16.16
2022-10-29T03:36:07.175Z,16.15
2022-10-29T03:38:35.369Z,16.11
2022-10-29T03:41:08.545Z,16.00
2022-10-29T03:43:36.584Z,16.09
2022-10-29T03:46:06.025Z,16.14
2022-10-29T03:48:34.460Z,16.09
2022-10-29T03:51:05.825Z,16.11
2022-10-29T03:53:34.914Z,16.18
2022-10-29T03:56:03.216Z,16.22
2022-10-29T03:58:30.987Z,16.18
2022-10-29T04:01:00.541Z,16.21
2022-10-29T04:03:31.248Z,16.22
2022-10-29T04:06:00.362Z,16.14
2022-10-29T04:08:28.333Z,16.23
2022-10-29T04:10:56.154Z,16.19
2022-10-29T04:13:23.879Z,16.24
2022-10-29T04:15:55.651Z,16.27
2022-10-29T04:18:23.450Z,16.26
2022-10-29T04:32:12.581Z,16.33
2022-10-29T04:34:40.341Z,16.32
2022-10-29T04:37:09.391Z,16.32
2022-10-29T04:39:37.135Z,16.31
2022-10-29T04:42:04.865Z,16.31
2022-10-29T04:44:32.541Z,16.34
2022-10-29T04:47:00.273Z,16.32
2022-10-29T04:49:28.158Z,16.34
2022-10-29T04:51:55.893Z,16.30
2022-10-29T04:54:24.986Z,16.34
2022-10-29T04:56:52.671Z,16.36
2022-10-29T04:59:20.383Z,16.31
2022-10-29T05:01:48.098Z,16.34
2022-10-29T05:04:15.828Z,16.35
2022-10-29T05:06:43.652Z,16.35
2022-10-29T05:09:11.756Z,16.32
2022-10-29T05:11:41.144Z,16.17
2022-10-29T05:14:08.959Z,16.31
2022-10-29T05:16:36.652Z,16.31
2022-10-29T05:19:05.901Z,16.26
2022-10-29T05:21:33.743Z,16.30
2022-10-29T05:24:01.639Z,16.31
2022-10-29T05:26:32.025Z,16.25
2022-10-29T05:29:01.148Z,16.09
2022-10-29T05:31:28.886Z,16.27
2022-10-29T05:33:56.741Z,16.28
2022-10-29T05:36:24.511Z,16.27
2022-10-29T05:38:52.316Z,16.29
2022-10-29T05:41:20.121Z,16.08
2022-10-29T05:43:49.817Z,16.28
2022-10-29T05:46:18.988Z,16.25
2022-10-29T05:48:49.014Z,16.15
2022-10-29T05:51:16.974Z,16.23
2022-10-29T05:53:44.758Z,16.19
2022-10-29T05:56:12.561Z,16.18
2022-10-29T05:58:40.369Z,16.14
2022-10-29T06:01:09.310Z,16.13
2022-10-29T06:03:39.038Z,16.13
2022-10-29T06:06:07.310Z,16.14
2022-10-29T06:08:35.460Z,16.10
2022-10-29T06:11:04.311Z,16.16
2022-10-29T06:13:32.257Z,16.18
2022-10-29T06:16:01.259Z,16.23
2022-10-29T06:18:29.358Z,16.01
2022-10-29T06:21:00.955Z,16.26
2022-10-29T06:23:34.193Z,16.09
2022-10-29T06:26:03.393Z,16.28
2022-10-29T06:28:34.726Z,16.30
2022-10-29T06:31:05.758Z,16.31
2022-10-29T06:33:33.553Z,16.32
2022-10-29T06:36:02.672Z,16.32
2022-10-29T06:38:30.408Z,16.36
2022-10-29T06:40:58.195Z,16.37
2022-10-29T06:43:25.962Z,16.37
2022-10-29T06:45:54.024Z,16.29
2022-10-29T06:48:24.090Z,16.35
2022-10-29T06:50:52.263Z,16.35
2022-10-29T06:53:21.639Z,16.31
2022-10-29T06:55:49.467Z,16.29
2022-10-29T06:58:19.088Z,16.24
2022-10-29T07:00:47.642Z,16.26
2022-10-29T07:03:16.897Z,16.25
2022-10-29T07:05:44.948Z,16.25
2022-10-29T07:08:13.496Z,16.15
2022-10-29T07:10:42.937Z,16.28
2022-10-29T07:13:13.669Z,16.28
2022-10-29T07:15:41.445Z,16.29
2022-10-29T07:18:10.846Z,16.30
2022-10-29T07:20:40.834Z,16.22
2022-10-29T07:23:09.483Z,16.35
2022-10-29T07:25:38.764Z,16.27
2022-10-29T07:28:12.274Z,16.39
2022-10-29T07:30:40.426Z,16.40
2022-10-29T07:33:08.687Z,16.35
2022-10-29T07:35:37.078Z,16.31
2022-10-29T07:38:09.060Z,16.45
2022-10-29T07:40:38.948Z,16.30
2022-10-29T07:43:08.110Z,16.46
2022-10-29T07:45:35.873Z,16.58
2022-10-29T07:48:07.458Z,16.57
2022-10-29T07:50:35.288Z,16.61
2022-10-29T07:53:04.165Z,16.65
2022-10-29T07:55:32.326Z,16.67
2022-10-29T07:58:02.412Z,16.68
2022-10-29T08:00:32.423Z,16.73
2022-10-29T08:03:00.260Z,16.79
2022-10-29T08:05:29.838Z,16.80
2022-10-29T08:07:58.503Z,16.81
2022-10-29T08:10:27.161Z,16.82
2022-10-29T08:12:57.146Z,16.85
2022-10-29T08:15:26.117Z,16.81
2022-10-29T08:17:55.334Z,16.78
2022-10-29T08:20:24.159Z,16.92
2022-10-29T08:22:51.892Z,16.97
2022-10-29T08:25:19.957Z,16.92
2022-10-29T08:27:58.437Z,17.02
2022-10-29T08:30:26.159Z,17.04
2022-10-29T08:32:55.584Z,17.04
2022-10-29T08:35:23.861Z,17.05
2022-10-29T08:37:51.655Z,17.07
2022-10-29T08:40:29.311Z,17.05
2022-10-29T08:43:19.367Z,17.05
2022-10-29T08:45:49.212Z,17.06
2022-10-29T08:48:37.517Z,17.03
2022-10-29T08:51:14.528Z,17.01
2022-10-29T08:53:45.513Z,17.09
2022-10-29T08:56:24.132Z,17.12
2022-10-29T08:58:58.386Z,17.16
2022-10-29T09:01:26.446Z,17.22
2022-10-29T09:03:56.078Z,17.28
2022-10-29T09:06:29.961Z,17.22
2022-10-29T09:09:24.841Z,17.32
2022-10-29T09:12:05.593Z,17.37
2022-10-29T09:14:45.976Z,17.43
2022-10-29T09:17:28.166Z,17.50
2022-10-29T09:20:17.898Z,17.54
2022-10-29T09:22:54.873Z,17.57
2022-10-29T09:25:27.717Z,17.59
2022-10-29T09:28:08.866Z,17.65
2022-10-29T09:30:45.003Z,17.73
2022-10-29T09:33:18.078Z,17.84
2022-10-29T09:35:50.310Z,18.00
2022-10-29T09:38:22.194Z,18.10
2022-10-29T09:40:50.123Z,18.04
2022-10-29T09:43:34.422Z,18.37
2022-10-29T09:46:09.798Z,18.25
2022-10-29T09:48:41.887Z,18.47
2022-10-29T09:51:21.849Z,18.49
2022-10-29T09:53:51.115Z,18.51
2022-10-29T09:56:19.549Z,18.50
2022-10-29T09:58:54.130Z,18.49
2022-10-29T10:01:22.301Z,18.33
2022-10-29T10:03:55.991Z,18.54
2022-10-29T10:06:25.094Z,18.68
2022-10-29T10:09:04.574Z,18.71
2022-10-29T10:11:38.800Z,18.67
2022-10-29T10:14:15.468Z,18.71
2022-10-29T10:16:44.017Z,18.81
2022-10-29T10:19:30.387Z,18.96
2022-10-29T10:22:01.439Z,19.01
2022-10-29T10:24:32.299Z,18.94
2022-10-29T10:27:00.827Z,18.80
2022-10-29T10:29:29.854Z,18.76
2022-10-29T10:32:16.626Z,18.74
2022-10-29T10:34:45.808Z,18.70
2022-10-29T10:37:21.374Z,18.67
2022-10-29T10:39:53.613Z,18.69
2022-10-29T10:42:24.781Z,18.71
2022-10-29T10:44:57.915Z,18.73
2022-10-29T10:47:30.620Z,18.65
2022-10-29T10:50:14.774Z,18.74
2022-10-29T10:52:47.723Z,18.75
2022-10-29T10:55:24.287Z,18.77
2022-10-29T10:58:00.401Z,18.77
2022-10-29T11:00:32.266Z,18.82
2022-10-29T11:03:06.003Z,18.81
2022-10-29T11:05:36.522Z,18.81
2022-10-29T11:08:13.495Z,18.81
2022-10-29T11:10:48.953Z,18.84
2022-10-29T11:13:19.051Z,18.77
2022-10-29T11:15:53.130Z,18.83
2022-10-29T11:18:25.864Z,18.76
2022-10-29T11:21:04.215Z,18.88
2022-10-29T11:23:44.052Z,18.96
2022-10-29T11:26:17.005Z,19.02
2022-10-29T11:28:49.763Z,18.95
2022-10-29T11:31:23.680Z,19.05
2022-10-29T11:33:59.624Z,19.06
2022-10-29T11:36:32.309Z,19.11
2022-10-29T11:39:08.318Z,19.09
2022-10-29T11:41:45.107Z,19.06
2022-10-29T11:44:13.981Z,19.09
2022-10-29T11:46:53.406Z,19.06
2022-10-29T11:49:40.040Z,19.07
2022-10-29T11:52:12.074Z,19.08
2022-10-29T11:55:00.414Z,19.10
2022-10-29T11:57:36.617Z,19.11
2022-10-29T12:00:12.023Z,19.12
2022-10-29T12:03:27.007Z,19.22
2022-10-29T12:06:05.098Z,19.29
2022-10-29T12:08:49.586Z,19.33
2022-10-29T12:11:26.990Z,19.45
2022-10-29T12:14:08.642Z,19.52
2022-10-29T12:16:50.374Z,19.59
2022-10-29T12:19:32.434Z,19.61
2022-10-29T12:22:12.375Z,19.61
2022-10-29T12:24:53.867Z,19.76
2022-10-29T12:27:32.070Z,19.76
2022-10-29T12:30:03.900Z,19.76
2022-10-29T12:32:38.971Z,19.81
2022-10-29T12:35:17.557Z,19.83
2022-10-29T12:37:59.050Z,19.88
2022-10-29T12:40:32.382Z,19.96
2022-10-29T12:43:07.162Z,20.06
2022-10-29T12:46:06.454Z,20.13
2022-10-29T12:48:40.013Z,20.16
2022-10-29T12:51:17.041Z,20.09
2022-10-29T12:54:03.610Z,20.11
2022-10-29T12:56:32.887Z,20.11
2022-10-29T12:59:32.348Z,20.08
2022-10-29T13:02:19.824Z,20.11
2022-10-29T13:05:33.658Z,20.08
2022-10-29T13:08:22.064Z,20.01
2022-10-29T13:10:56.088Z,19.98
2022-10-29T13:13:37.736Z,19.94
2022-10-29T13:16:14.156Z,19.92
2022-10-29T13:18:52.879Z,19.85
2022-10-29T13:22:01.033Z,19.81
2022-10-29T13:24:30.470Z,19.84
2022-10-29T13:27:01.521Z,19.80
2022-10-29T13:29:46.690Z,19.75
2022-10-29T13:32:32.576Z,19.75
2022-10-29T13:35:01.809Z,19.74
2022-10-29T13:38:02.834Z,19.71
2022-10-29T13:41:14.438Z,19.73
2022-10-29T13:43:45.151Z,19.75
2022-10-29T13:46:36.826Z,19.79
2022-10-29T13:49:13.483Z,19.76
2022-10-29T13:51:51.750Z,19.73
2022-10-29T13:54:31.454Z,19.75
2022-10-29T13:57:01.297Z,19.75
2022-10-29T13:59:42.804Z,19.66
2022-10-29T14:02:21.725Z,19.66
2022-10-29T14:04:55.842Z,19.70
2022-10-29T14:07:29.930Z,19.69
2022-10-29T14:10:03.614Z,19.66
2022-10-29T14:12:33.881Z,19.64
2022-10-29T14:15:11.278Z,19.61
2022-10-29T14:17:39.819Z,19.42
2022-10-29T14:20:21.369Z,19.60
2022-10-29T14:22:49.085Z,19.59
2022-10-29T14:25:35.671Z,19.54
2022-10-29T14:28:18.298Z,19.48
2022-10-29T14:30:47.302Z,19.41
2022-10-29T14:33:20.224Z,19.42
2022-10-29T14:35:49.826Z,19.43
2022-10-29T14:38:18.821Z,19.31
2022-10-29T14:40:47.700Z,19.41
2022-10-29T14:43:25.118Z,19.44
2022-10-29T14:45:53.249Z,19.41
2022-10-29T14:48:21.335Z,19.42
2022-10-29T14:50:56.759Z,19.43
2022-10-29T14:53:30.873Z,19.43
2022-10-29T14:56:04.369Z,19.42
2022-10-29T14:58:34.773Z,19.28
2022-10-29T15:01:05.835Z,19.32
2022-10-29T15:03:35.788Z,19.31
2022-10-29T15:06:26.178Z,19.18
2022-10-29T15:08:57.867Z,19.26
2022-10-29T15:11:34.193Z,19.24
2022-10-29T15:14:02.111Z,19.27
2022-10-29T15:16:31.182Z,19.25
2022-10-29T15:19:00.896Z,19.23
2022-10-29T15:21:32.973Z,19.19
2022-10-29T15:24:06.436Z,19.15
2022-10-29T15:26:37.428Z,19.16
2022-10-29T15:29:11.593Z,19.10
2022-10-29T15:31:45.599Z,19.15
2022-10-29T15:34:27.280Z,19.12
2022-10-29T15:36:57.867Z,19.05
2022-10-29T15:39:30.471Z,19.06
2022-10-29T15:42:00.774Z,19.04
2022-10-29T15:44:39.721Z,19.01
2022-10-29T15:47:21.661Z,18.97
2022-10-29T15:49:49.391Z,18.92
2022-10-29T15:52:21.219Z,18.88
2022-10-29T15:54:49.014Z,18.84
2022-10-29T15:57:17.746Z,18.83
2022-10-29T15:59:45.549Z,18.54
2022-10-29T16:02:14.644Z,18.78
2022-10-29T16:04:43.753Z,18.77
2022-10-29T16:07:13.694Z,18.67
2022-10-29T16:09:46.179Z,18.66
2022-10-29T16:12:14.185Z,18.65
2022-10-29T16:14:41.893Z,18.65
2022-10-29T16:17:14.523Z,18.59
2022-10-29T16:19:42.306Z,18.54
2022-10-29T16:22:15.035Z,18.50
2022-10-29T16:24:44.322Z,18.49
2022-10-29T16:27:16.931Z,18.48
2022-10-29T16:29:46.979Z,18.49
2022-10-29T16:32:16.883Z,18.47
2022-10-29T16:34:45.071Z,18.49
2022-10-29T16:37:14.348Z,18.25
2022-10-29T16:39:42.164Z,18.41
2022-10-29T16:42:29.126Z,18.38
2022-10-29T16:44:57.147Z,18.35
2022-10-29T16:47:25.135Z,18.37
2022-10-29T16:49:52.932Z,18.37
2022-10-29T16:52:24.091Z,18.36
2022-10-29T16:54:54.097Z,18.36
2022-10-29T16:57:23.700Z,18.32
2022-10-29T16:59:51.525Z,18.27
2022-10-29T17:02:19.234Z,18.30
2022-10-29T17:04:47.024Z,18.31
2022-10-29T17:07:14.770Z,18.27
2022-10-29T17:09:42.502Z,18.26
2022-10-29T17:12:10.258Z,18.23
2022-10-29T17:14:39.605Z,18.16
2022-10-29T17:17:07.406Z,18.11
2022-10-29T17:19:35.131Z,18.09
2022-10-29T17:22:04.185Z,18.06
2022-10-29T17:24:31.911Z,18.03
2022-10-29T17:26:59.939Z,18.01
2022-10-29T17:29:28.166Z,17.96
2022-10-29T17:31:58.540Z,17.96
2022-10-29T17:34:26.404Z,17.92
2022-10-29T17:36:54.105Z,17.89
2022-10-29T17:39:22.166Z,17.88
2022-10-29T17:41:50.619Z,17.86
2022-10-29T17:44:18.465Z,17.83
2022-10-29T17:46:46.297Z,17.80
2022-10-29T17:49:15.367Z,17.77
2022-10-29T17:51:43.058Z,17.76
2022-10-29T17:54:13.408Z,17.73
2022-10-29T17:56:41.317Z,17.70
2022-10-29T17:59:09.062Z,17.68
2022-10-29T18:01:36.905Z,17.63
2022-10-29T18:04:06.254Z,17.61
2022-10-29T18:06:35.268Z,17.57
2022-10-29T18:09:02.934Z,17.43
2022-10-29T18:11:31.130Z,17.50
2022-10-29T18:13:59.463Z,17.46
2022-10-29T18:16:29.744Z,17.45
2022-10-29T18:19:02.793Z,17.40
2022-10-29T18:21:32.440Z,17.41
2022-10-29T18:24:01.565Z,17.40
2022-10-29T18:26:31.033Z,17.39
2022-10-29T18:29:00.657Z,17.37
2022-10-29T18:31:30.495Z,17.37
2022-10-29T18:33:59.084Z,17.36
2022-10-29T18:36:27.355Z,17.21
2022-10-29T18:38:56.176Z,17.33
2022-10-29T18:41:26.056Z,17.35
2022-10-29T18:43:54.432Z,17.36
2022-10-29T18:46:22.616Z,17.32
2022-10-29T18:48:50.697Z,17.37
2022-10-29T18:51:19.616Z,17.38
2022-10-29T18:53:47.617Z,17.29
2022-10-29T18:56:17.926Z,17.38
2022-10-29T18:58:47.223Z,17.38
2022-10-29T19:01:17.104Z,17.38
2022-10-29T19:03:45.475Z,17.37
2022-10-29T19:06:14.650Z,17.36
2022-10-29T19:08:43.874Z,17.29
2022-10-29T19:11:15.040Z,17.38
2022-10-29T19:13:43.278Z,17.32
2022-10-29T19:16:14.975Z,17.45
2022-10-29T19:18:42.717Z,17.42
2022-10-29T19:21:12.199Z,17.36
2022-10-29T19:23:40.444Z,17.42
2022-10-29T19:26:10.783Z,17.38
2022-10-29T19:28:39.864Z,17.40
2022-10-29T19:31:09.473Z,17.40
2022-10-29T19:33:39.322Z,17.41
2022-10-29T19:36:09.488Z,17.37
2022-10-29T19:38:37.270Z,17.32
2022-10-29T19:41:05.028Z,17.26
2022-10-29T19:43:32.951Z,17.25
2022-10-29T19:46:00.655Z,17.24
2022-10-29T19:48:28.319Z,17.23
2022-10-29T19:50:57.397Z,17.21
2022-10-29T19:53:27.338Z,17.22
2022-10-29T19:55:55.258Z,17.11
2022-10-29T19:58:24.528Z,17.16
2022-10-29T20:00:52.470Z,17.16
2022-10-29T20:03:20.558Z,17.09
2022-10-29T20:05:48.292Z,17.11
2022-10-29T20:08:17.402Z,17.07
2022-10-29T20:10:45.464Z,17.11
2022-10-29T20:13:13.169Z,17.09
2022-10-29T20:15:40.975Z,17.06
2022-10-29T20:18:08.644Z,17.03
2022-10-29T20:20:36.374Z,17.04
2022-10-29T20:23:04.082Z,17.07
2022-10-29T20:25:33.155Z,17.06
2022-10-29T20:28:01.806Z,17.04
2022-10-29T20:30:29.755Z,17.03
2022-10-29T20:32:58.129Z,16.98
2022-10-29T20:35:26.053Z,16.99
2022-10-29T20:37:53.799Z,16.97
2022-10-29T20:40:21.475Z,17.00
2022-10-29T20:42:51.751Z,17.03
2022-10-29T20:45:20.616Z,17.01
2022-10-29T20:47:48.280Z,17.00
2022-10-29T20:50:16.182Z,17.02
2022-10-29T20:52:48.325Z,17.03
2022-10-29T20:55:16.701Z,17.05
2022-10-29T20:57:44.452Z,17.03
2022-10-29T21:00:14.736Z,17.04
2022-10-29T21:02:42.514Z,17.04
2022-10-29T21:05:10.459Z,17.02
2022-10-29T21:07:40.238Z,16.95
2022-10-29T21:10:09.328Z,17.01
2022-10-29T21:12:37.242Z,17.02
2022-10-29T21:15:05.650Z,17.02
2022-10-29T21:17:35.416Z,17.03
2022-10-29T21:20:03.258Z,17.04
2022-10-29T21:22:31.095Z,17.02
2022-10-29T21:24:58.859Z,17.03
2022-10-29T21:27:26.976Z,17.02
2022-10-29T21:29:54.737Z,17.01
2022-10-29T21:32:22.443Z,17.00
2022-10-29T21:34:51.797Z,16.96
2022-10-29T21:37:19.552Z,17.01
2022-10-29T21:39:47.310Z,16.96
2022-10-29T21:42:15.046Z,17.00
2022-10-29T21:44:42.752Z,16.96
2022-10-29T21:47:10.483Z,16.94
2022-10-29T21:49:38.183Z,16.92
2022-10-29T21:52:07.530Z,16.91
2022-10-29T21:54:35.656Z,16.90
2022-10-29T21:57:03.385Z,16.84
2022-10-29T21:59:31.100Z,16.85
2022-10-29T22:01:59.479Z,16.83
2022-10-29T22:04:27.490Z,16.64
2022-10-29T22:06:55.846Z,16.82
2022-10-29T22:09:24.972Z,16.79
2022-10-29T22:11:52.705Z,16.83
2022-10-29T22:14:20.575Z,16.83
2022-10-29T22:16:48.283Z,16.83
2022-10-29T22:19:15.980Z,16.82
2022-10-29T22:21:45.182Z,16.87
2022-10-29T22:24:13.044Z,16.93
2022-10-29T22:26:42.125Z,16.96
2022-10-29T22:29:10.226Z,17.01
2022-10-29T22:31:37.960Z,17.03
2022-10-29T22:34:05.943Z,17.06
2022-10-29T22:36:33.665Z,17.06
2022-10-29T22:39:02.174Z,16.97
2022-10-29T22:41:30.717Z,17.05
2022-10-29T22:44:00.749Z,17.09
2022-10-29T22:46:29.891Z,17.08
2022-10-29T22:48:57.983Z,17.11
2022-10-29T22:51:27.059Z,17.11
2022-10-29T22:53:55.190Z,17.10
2022-10-29T22:56:25.179Z,17.11
2022-10-29T22:58:53.372Z,17.09
2022-10-29T23:01:31.496Z,17.10
2022-10-29T23:03:59.960Z,17.04
2022-10-29T23:06:28.422Z,16.73
2022-10-29T23:08:58.473Z,17.10
2022-10-29T23:11:28.258Z,17.10
2022-10-29T23:13:57.534Z,17.01
2022-10-29T23:16:27.190Z,16.95
2022-10-29T23:18:58.392Z,17.07
2022-10-29T23:21:26.316Z,17.04
2022-10-29T23:23:54.497Z,17.02
2022-10-29T23:26:24.065Z,17.03
2022-10-29T23:28:52.131Z,17.02
2022-10-29T23:31:21.666Z,17.01
2022-10-29T23:33:50.945Z,16.96
2022-10-29T23:36:21.951Z,17.01
2022-10-29T23:38:54.628Z,16.95
2022-10-29T23:41:22.368Z,16.99
2022-10-29T23:43:50.125Z,17.03
2022-10-29T23:46:18.017Z,16.93
2022-10-29T23:48:45.870Z,17.00
2022-10-29T23:51:13.626Z,17.01
2022-10-29T23:53:42.722Z,16.98
2022-10-29T23:56:10.386Z,16.98
2022-10-29T23:58:38.147Z,16.98
